sensor_id;sensor_type;location;lat;lon;timestamp;P1;durP1;ratioP1;P2;durP2;ratioP2
67737;SDS011;54534;43.612;1.572;2023-02-01T00:01:38;17.53;;;9.50;;
67737;SDS011;54534;43.612;1.572;2023-02-01T00:04:03;16.33;;;10.50;;
67737;SDS011;54534;43.612;1.572;2023-02-01T00:06:29;17.47;;;10.23;;
67737;SDS011;54534;43.612;1.572;2023-02-01T00:08:54;15.93;;;10.20;;
67737;SDS011;54534;43.612;1.572;2023-02-01T00:11:20;16.50;;;10.23;;
67737;SDS011;54534;43.612;1.572;2023-02-01T00:13:46;15.20;;;9.70;;
67737;SDS011;54534;43.612;1.572;2023-02-01T00:16:12;15.13;;;9.77;;
67737;SDS011;54534;43.612;1.572;2023-02-01T00:18:39;14.27;;;9.90;;
67737;SDS011;54534;43.612;1.572;2023-02-01T00:21:04;22.47;;;10.40;;
67737;SDS011;54534;43.612;1.572;2023-02-01T00:23:36;14.23;;;10.13;;
67737;SDS011;54534;43.612;1.572;2023-02-01T00:26:03;15.30;;;9.67;;
67737;SDS011;54534;43.612;1.572;2023-02-01T00:28:30;13.57;;;9.10;;
67737;SDS011;54534;43.612;1.572;2023-02-01T00:30:59;17.27;;;9.17;;
67737;SDS011;54534;43.612;1.572;2023-02-01T00:33:26;13.37;;;8.87;;
67737;SDS011;54534;43.612;1.572;2023-02-01T00:35:59;13.80;;;9.07;;
67737;SDS011;54534;43.612;1.572;2023-02-01T00:38:26;12.07;;;8.90;;
67737;SDS011;54534;43.612;1.572;2023-02-01T00:40:52;11.57;;;8.37;;
67737;SDS011;54534;43.612;1.572;2023-02-01T00:43:18;12.93;;;8.10;;
67737;SDS011;54534;43.612;1.572;2023-02-01T00:45:45;13.20;;;8.50;;
67737;SDS011;54534;43.612;1.572;2023-02-01T00:48:10;15.47;;;9.33;;
67737;SDS011;54534;43.612;1.572;2023-02-01T00:50:40;13.93;;;8.33;;
67737;SDS011;54534;43.612;1.572;2023-02-01T00:53:06;11.57;;;8.17;;
67737;SDS011;54534;43.612;1.572;2023-02-01T00:55:33;13.53;;;8.37;;
67737;SDS011;54534;43.612;1.572;2023-02-01T00:57:59;10.63;;;8.07;;
67737;SDS011;54534;43.612;1.572;2023-02-01T01:00:24;13.53;;;7.80;;
67737;SDS011;54534;43.612;1.572;2023-02-01T01:02:50;13.10;;;8.20;;
67737;SDS011;54534;43.612;1.572;2023-02-01T01:05:16;11.30;;;7.17;;
67737;SDS011;54534;43.612;1.572;2023-02-01T01:07:41;15.67;;;8.67;;
67737;SDS011;54534;43.612;1.572;2023-02-01T01:10:07;13.33;;;7.90;;
67737;SDS011;54534;43.612;1.572;2023-02-01T01:12:32;11.63;;;7.60;;
67737;SDS011;54534;43.612;1.572;2023-02-01T01:14:58;9.67;;;7.23;;
67737;SDS011;54534;43.612;1.572;2023-02-01T01:17:23;11.23;;;7.47;;
67737;SDS011;54534;43.612;1.572;2023-02-01T01:19:48;9.63;;;7.00;;
67737;SDS011;54534;43.612;1.572;2023-02-01T01:22:14;7.83;;;6.63;;
67737;SDS011;54534;43.612;1.572;2023-02-01T01:24:39;8.57;;;6.67;;
67737;SDS011;54534;43.612;1.572;2023-02-01T01:27:04;10.97;;;7.00;;
67737;SDS011;54534;43.612;1.572;2023-02-01T01:29:30;9.87;;;7.33;;
67737;SDS011;54534;43.612;1.572;2023-02-01T01:31:55;10.57;;;7.10;;
67737;SDS011;54534;43.612;1.572;2023-02-01T01:34:21;9.37;;;6.83;;
67737;SDS011;54534;43.612;1.572;2023-02-01T01:36:46;8.90;;;6.60;;
67737;SDS011;54534;43.612;1.572;2023-02-01T01:39:11;10.70;;;7.17;;
67737;SDS011;54534;43.612;1.572;2023-02-01T01:41:37;9.07;;;6.40;;
67737;SDS011;54534;43.612;1.572;2023-02-01T01:44:04;11.07;;;7.33;;
67737;SDS011;54534;43.612;1.572;2023-02-01T01:46:37;9.97;;;6.60;;
67737;SDS011;54534;43.612;1.572;2023-02-01T01:51:35;8.27;;;6.33;;
67737;SDS011;54534;43.612;1.572;2023-02-01T01:54:14;10.17;;;6.30;;
67737;SDS011;54534;43.612;1.572;2023-02-01T01:56:48;10.18;;;6.78;;
67737;SDS011;54534;43.612;1.572;2023-02-01T01:59:22;7.57;;;6.10;;
67737;SDS011;54534;43.612;1.572;2023-02-01T02:01:49;10.00;;;6.40;;
67737;SDS011;54534;43.612;1.572;2023-02-01T02:04:15;8.60;;;6.37;;
67737;SDS011;54534;43.612;1.572;2023-02-01T02:06:59;8.10;;;6.20;;
67737;SDS011;54534;43.612;1.572;2023-02-01T02:09:28;11.80;;;5.90;;
67737;SDS011;54534;43.612;1.572;2023-02-01T02:11:53;9.07;;;6.53;;
67737;SDS011;54534;43.612;1.572;2023-02-01T02:14:19;8.80;;;5.97;;
67737;SDS011;54534;43.612;1.572;2023-02-01T02:42:49;6.90;;;5.47;;
67737;SDS011;54534;43.612;1.572;2023-02-01T02:45:43;7.37;;;5.47;;
67737;SDS011;54534;43.612;1.572;2023-02-01T02:51:14;7.73;;;5.50;;
67737;SDS011;54534;43.612;1.572;2023-02-01T02:54:21;7.03;;;5.37;;
67737;SDS011;54534;43.612;1.572;2023-02-01T02:57:08;7.33;;;5.33;;
67737;SDS011;54534;43.612;1.572;2023-02-01T02:59:57;5.87;;;4.50;;
67737;SDS011;54534;43.612;1.572;2023-02-01T03:02:42;10.03;;;5.47;;
67737;SDS011;54534;43.612;1.572;2023-02-01T03:05:34;8.40;;;5.37;;
67737;SDS011;54534;43.612;1.572;2023-02-01T03:19:21;7.65;;;5.28;;
67737;SDS011;54534;43.612;1.572;2023-02-01T03:22:00;5.93;;;4.80;;
67737;SDS011;54534;43.612;1.572;2023-02-01T03:27:18;7.03;;;5.00;;
67737;SDS011;54534;43.612;1.572;2023-02-01T03:29:52;9.47;;;5.00;;
67737;SDS011;54534;43.612;1.572;2023-02-01T03:32:23;6.17;;;4.50;;
67737;SDS011;54534;43.612;1.572;2023-02-01T03:34:49;6.27;;;5.17;;
67737;SDS011;54534;43.612;1.572;2023-02-01T03:37:16;5.80;;;4.60;;
67737;SDS011;54534;43.612;1.572;2023-02-01T03:39:52;6.10;;;4.37;;
67737;SDS011;54534;43.612;1.572;2023-02-01T03:42:35;6.50;;;4.53;;
67737;SDS011;54534;43.612;1.572;2023-02-01T03:45:06;5.97;;;4.50;;
67737;SDS011;54534;43.612;1.572;2023-02-01T03:47:34;5.95;;;4.53;;
67737;SDS011;54534;43.612;1.572;2023-02-01T03:50:07;6.03;;;4.25;;
67737;SDS011;54534;43.612;1.572;2023-02-01T03:52:53;4.80;;;3.83;;
67737;SDS011;54534;43.612;1.572;2023-02-01T03:55:24;5.63;;;4.57;;
67737;SDS011;54534;43.612;1.572;2023-02-01T03:58:04;5.50;;;3.87;;
67737;SDS011;54534;43.612;1.572;2023-02-01T04:00:33;7.20;;;4.17;;
67737;SDS011;54534;43.612;1.572;2023-02-01T04:02:58;5.43;;;4.33;;
67737;SDS011;54534;43.612;1.572;2023-02-01T04:05:24;4.60;;;4.00;;
67737;SDS011;54534;43.612;1.572;2023-02-01T04:07:49;7.93;;;4.50;;
67737;SDS011;54534;43.612;1.572;2023-02-01T04:10:15;4.63;;;3.77;;
67737;SDS011;54534;43.612;1.572;2023-02-01T04:12:40;5.23;;;4.00;;
67737;SDS011;54534;43.612;1.572;2023-02-01T04:15:06;5.57;;;4.73;;
67737;SDS011;54534;43.612;1.572;2023-02-01T04:17:32;4.50;;;3.97;;
67737;SDS011;54534;43.612;1.572;2023-02-01T04:19:58;5.23;;;4.00;;
67737;SDS011;54534;43.612;1.572;2023-02-01T04:22:23;5.67;;;3.90;;
67737;SDS011;54534;43.612;1.572;2023-02-01T04:24:48;4.80;;;3.63;;
67737;SDS011;54534;43.612;1.572;2023-02-01T04:27:14;6.27;;;3.70;;
67737;SDS011;54534;43.612;1.572;2023-02-01T04:29:40;5.47;;;4.23;;
67737;SDS011;54534;43.612;1.572;2023-02-01T04:32:06;5.93;;;4.10;;
67737;SDS011;54534;43.612;1.572;2023-02-01T04:34:32;4.50;;;3.97;;
67737;SDS011;54534;43.612;1.572;2023-02-01T04:36:57;5.43;;;3.80;;
67737;SDS011;54534;43.612;1.572;2023-02-01T04:39:22;6.27;;;3.97;;
67737;SDS011;54534;43.612;1.572;2023-02-01T04:41:48;4.60;;;4.00;;
67737;SDS011;54534;43.612;1.572;2023-02-01T04:44:17;4.50;;;3.40;;
67737;SDS011;54534;43.612;1.572;2023-02-01T04:49:09;4.90;;;3.97;;
67737;SDS011;54534;43.612;1.572;2023-02-01T04:51:36;5.77;;;4.13;;
67737;SDS011;54534;43.612;1.572;2023-02-01T04:54:01;4.03;;;3.17;;
67737;SDS011;54534;43.612;1.572;2023-02-01T04:56:27;4.53;;;3.80;;
67737;SDS011;54534;43.612;1.572;2023-02-01T04:58:52;4.90;;;3.70;;
67737;SDS011;54534;43.612;1.572;2023-02-01T05:01:18;4.57;;;3.63;;
67737;SDS011;54534;43.612;1.572;2023-02-01T05:03:43;4.00;;;3.60;;
67737;SDS011;54534;43.612;1.572;2023-02-01T05:06:08;4.83;;;3.70;;
67737;SDS011;54534;43.612;1.572;2023-02-01T05:08:34;4.47;;;3.90;;
67737;SDS011;54534;43.612;1.572;2023-02-01T05:10:59;5.83;;;4.00;;
67737;SDS011;54534;43.612;1.572;2023-02-01T05:13:27;4.33;;;3.43;;
67737;SDS011;54534;43.612;1.572;2023-02-01T05:16:12;4.07;;;3.50;;
67737;SDS011;54534;43.612;1.572;2023-02-01T05:18:37;4.43;;;3.53;;
67737;SDS011;54534;43.612;1.572;2023-02-01T05:21:03;3.87;;;2.87;;
67737;SDS011;54534;43.612;1.572;2023-02-01T05:23:28;4.10;;;3.47;;
67737;SDS011;54534;43.612;1.572;2023-02-01T05:25:58;4.40;;;3.40;;
67737;SDS011;54534;43.612;1.572;2023-02-01T05:28:27;4.23;;;3.20;;
67737;SDS011;54534;43.612;1.572;2023-02-01T05:30:53;4.73;;;3.47;;
67737;SDS011;54534;43.612;1.572;2023-02-01T05:33:18;3.47;;;3.00;;
67737;SDS011;54534;43.612;1.572;2023-02-01T05:35:44;4.17;;;3.37;;
67737;SDS011;54534;43.612;1.572;2023-02-01T05:38:09;3.70;;;3.10;;
67737;SDS011;54534;43.612;1.572;2023-02-01T05:40:35;3.20;;;2.90;;
67737;SDS011;54534;43.612;1.572;2023-02-01T05:43:00;4.83;;;3.00;;
67737;SDS011;54534;43.612;1.572;2023-02-01T05:45:26;3.53;;;3.10;;
67737;SDS011;54534;43.612;1.572;2023-02-01T05:47:51;4.50;;;3.43;;
67737;SDS011;54534;43.612;1.572;2023-02-01T05:50:16;3.93;;;3.33;;
67737;SDS011;54534;43.612;1.572;2023-02-01T05:52:42;4.63;;;3.30;;
67737;SDS011;54534;43.612;1.572;2023-02-01T05:55:07;2.93;;;2.50;;
67737;SDS011;54534;43.612;1.572;2023-02-01T05:57:33;3.63;;;3.13;;
67737;SDS011;54534;43.612;1.572;2023-02-01T05:59:58;4.87;;;3.00;;
67737;SDS011;54534;43.612;1.572;2023-02-01T06:02:24;3.50;;;3.00;;
67737;SDS011;54534;43.612;1.572;2023-02-01T06:04:50;4.27;;;3.50;;
67737;SDS011;54534;43.612;1.572;2023-02-01T06:07:15;19.83;;;3.60;;
67737;SDS011;54534;43.612;1.572;2023-02-01T06:09:41;6.67;;;3.70;;
67737;SDS011;54534;43.612;1.572;2023-02-01T06:12:06;17.67;;;2.70;;
67737;SDS011;54534;43.612;1.572;2023-02-01T06:14:32;9.50;;;3.27;;
67737;SDS011;54534;43.612;1.572;2023-02-01T06:16:57;10.30;;;3.07;;
67737;SDS011;54534;43.612;1.572;2023-02-01T06:19:23;7.80;;;2.50;;
67737;SDS011;54534;43.612;1.572;2023-02-01T06:21:50;7.97;;;4.13;;
67737;SDS011;54534;43.612;1.572;2023-02-01T06:24:15;7.67;;;2.97;;
67737;SDS011;54534;43.612;1.572;2023-02-01T06:26:41;3.30;;;3.00;;
67737;SDS011;54534;43.612;1.572;2023-02-01T06:29:07;6.60;;;2.80;;
67737;SDS011;54534;43.612;1.572;2023-02-01T06:31:34;6.03;;;2.90;;
67737;SDS011;54534;43.612;1.572;2023-02-01T06:34:00;9.33;;;2.77;;
67737;SDS011;54534;43.612;1.572;2023-02-01T06:36:25;3.20;;;2.90;;
67737;SDS011;54534;43.612;1.572;2023-02-01T06:38:51;9.47;;;2.80;;
67737;SDS011;54534;43.612;1.572;2023-02-01T06:41:17;5.70;;;3.57;;
67737;SDS011;54534;43.612;1.572;2023-02-01T06:43:42;4.93;;;2.80;;
67737;SDS011;54534;43.612;1.572;2023-02-01T06:46:09;4.07;;;2.97;;
67737;SDS011;54534;43.612;1.572;2023-02-01T06:48:37;3.73;;;2.57;;
67737;SDS011;54534;43.612;1.572;2023-02-01T06:51:02;6.20;;;2.70;;
67737;SDS011;54534;43.612;1.572;2023-02-01T06:53:28;3.60;;;2.70;;
67737;SDS011;54534;43.612;1.572;2023-02-01T06:56:00;5.70;;;3.03;;
67737;SDS011;54534;43.612;1.572;2023-02-01T06:58:28;3.73;;;2.77;;
67737;SDS011;54534;43.612;1.572;2023-02-01T07:00:57;5.38;;;2.88;;
67737;SDS011;54534;43.612;1.572;2023-02-01T07:03:23;10.47;;;2.67;;
67737;SDS011;54534;43.612;1.572;2023-02-01T07:05:48;4.23;;;2.97;;
67737;SDS011;54534;43.612;1.572;2023-02-01T07:08:14;3.27;;;2.33;;
67737;SDS011;54534;43.612;1.572;2023-02-01T07:10:39;5.37;;;3.13;;
67737;SDS011;54534;43.612;1.572;2023-02-01T07:13:05;11.23;;;2.47;;
67737;SDS011;54534;43.612;1.572;2023-02-01T07:15:30;13.57;;;2.87;;
67737;SDS011;54534;43.612;1.572;2023-02-01T07:17:56;8.60;;;2.80;;
67737;SDS011;54534;43.612;1.572;2023-02-01T07:20:22;6.37;;;2.83;;
67737;SDS011;54534;43.612;1.572;2023-02-01T07:22:48;7.83;;;2.63;;
67737;SDS011;54534;43.612;1.572;2023-02-01T07:25:13;4.43;;;2.80;;
67737;SDS011;54534;43.612;1.572;2023-02-01T07:27:39;24.07;;;3.07;;
67737;SDS011;54534;43.612;1.572;2023-02-01T07:30:04;11.70;;;3.13;;
67737;SDS011;54534;43.612;1.572;2023-02-01T07:32:30;9.87;;;2.47;;
67737;SDS011;54534;43.612;1.572;2023-02-01T07:34:56;17.57;;;3.07;;
67737;SDS011;54534;43.612;1.572;2023-02-01T07:37:22;5.37;;;2.60;;
67737;SDS011;54534;43.612;1.572;2023-02-01T07:39:49;6.17;;;2.90;;
67737;SDS011;54534;43.612;1.572;2023-02-01T07:42:15;5.93;;;2.97;;
67737;SDS011;54534;43.612;1.572;2023-02-01T07:44:41;11.47;;;2.90;;
67737;SDS011;54534;43.612;1.572;2023-02-01T07:47:06;7.67;;;2.63;;
67737;SDS011;54534;43.612;1.572;2023-02-01T07:49:32;8.00;;;2.30;;
67737;SDS011;54534;43.612;1.572;2023-02-01T07:51:57;6.13;;;2.43;;
67737;SDS011;54534;43.612;1.572;2023-02-01T07:54:22;4.47;;;2.30;;
67737;SDS011;54534;43.612;1.572;2023-02-01T07:56:48;2.77;;;2.20;;
67737;SDS011;54534;43.612;1.572;2023-02-01T07:59:13;6.83;;;2.50;;
67737;SDS011;54534;43.612;1.572;2023-02-01T08:01:40;5.87;;;2.50;;
67737;SDS011;54534;43.612;1.572;2023-02-01T08:04:05;3.60;;;2.23;;
67737;SDS011;54534;43.612;1.572;2023-02-01T08:06:31;9.80;;;2.90;;
67737;SDS011;54534;43.612;1.572;2023-02-01T08:08:58;3.10;;;2.50;;
67737;SDS011;54534;43.612;1.572;2023-02-01T08:11:24;3.63;;;2.53;;
67737;SDS011;54534;43.612;1.572;2023-02-01T08:13:50;4.97;;;2.50;;
67737;SDS011;54534;43.612;1.572;2023-02-01T08:16:16;7.37;;;2.67;;
67737;SDS011;54534;43.612;1.572;2023-02-01T08:18:43;7.67;;;2.47;;
67737;SDS011;54534;43.612;1.572;2023-02-01T08:21:15;4.93;;;2.50;;
67737;SDS011;54534;43.612;1.572;2023-02-01T08:23:43;2.80;;;2.20;;
67737;SDS011;54534;43.612;1.572;2023-02-01T08:26:10;4.27;;;2.40;;
67737;SDS011;54534;43.612;1.572;2023-02-01T08:28:42;5.30;;;2.67;;
67737;SDS011;54534;43.612;1.572;2023-02-01T08:31:10;4.67;;;2.13;;
67737;SDS011;54534;43.612;1.572;2023-02-01T08:33:39;3.33;;;2.20;;
67737;SDS011;54534;43.612;1.572;2023-02-01T08:36:06;6.40;;;2.60;;
67737;SDS011;54534;43.612;1.572;2023-02-01T08:38:34;5.40;;;2.20;;
67737;SDS011;54534;43.612;1.572;2023-02-01T08:41:20;4.90;;;2.10;;
67737;SDS011;54534;43.612;1.572;2023-02-01T08:43:48;2.97;;;2.20;;
67737;SDS011;54534;43.612;1.572;2023-02-01T08:46:13;5.73;;;2.50;;
67737;SDS011;54534;43.612;1.572;2023-02-01T08:48:39;2.80;;;2.27;;
67737;SDS011;54534;43.612;1.572;2023-02-01T08:51:06;2.60;;;1.93;;
67737;SDS011;54534;43.612;1.572;2023-02-01T08:53:33;7.43;;;2.67;;
67737;SDS011;54534;43.612;1.572;2023-02-01T08:55:59;3.73;;;2.33;;
67737;SDS011;54534;43.612;1.572;2023-02-01T08:58:25;3.83;;;2.37;;
67737;SDS011;54534;43.612;1.572;2023-02-01T09:00:50;3.60;;;2.10;;
67737;SDS011;54534;43.612;1.572;2023-02-01T09:03:16;7.80;;;2.53;;
67737;SDS011;54534;43.612;1.572;2023-02-01T09:05:42;7.23;;;2.10;;
67737;SDS011;54534;43.612;1.572;2023-02-01T09:08:07;3.87;;;1.97;;
67737;SDS011;54534;43.612;1.572;2023-02-01T09:10:34;4.00;;;2.17;;
67737;SDS011;54534;43.612;1.572;2023-02-01T09:13:00;2.03;;;1.73;;
67737;SDS011;54534;43.612;1.572;2023-02-01T09:15:25;4.43;;;2.37;;
67737;SDS011;54534;43.612;1.572;2023-02-01T09:17:51;3.43;;;2.20;;
67737;SDS011;54534;43.612;1.572;2023-02-01T09:20:16;2.50;;;2.03;;
67737;SDS011;54534;43.612;1.572;2023-02-01T09:22:43;2.80;;;2.10;;
67737;SDS011;54534;43.612;1.572;2023-02-01T09:25:09;3.30;;;2.50;;
67737;SDS011;54534;43.612;1.572;2023-02-01T09:27:34;2.57;;;1.73;;
67737;SDS011;54534;43.612;1.572;2023-02-01T09:30:00;2.73;;;1.90;;
67737;SDS011;54534;43.612;1.572;2023-02-01T09:32:26;2.53;;;1.93;;
67737;SDS011;54534;43.612;1.572;2023-02-01T09:34:52;2.23;;;1.80;;
67737;SDS011;54534;43.612;1.572;2023-02-01T09:37:17;4.00;;;2.20;;
67737;SDS011;54534;43.612;1.572;2023-02-01T09:39:45;2.83;;;2.10;;
67737;SDS011;54534;43.612;1.572;2023-02-01T09:42:15;3.57;;;2.10;;
67737;SDS011;54534;43.612;1.572;2023-02-01T09:47:26;2.43;;;2.23;;
67737;SDS011;54534;43.612;1.572;2023-02-01T09:50:00;3.17;;;2.07;;
67737;SDS011;54534;43.612;1.572;2023-02-01T09:53:01;4.10;;;1.87;;
67737;SDS011;54534;43.612;1.572;2023-02-01T09:56:04;2.40;;;1.80;;
67737;SDS011;54534;43.612;1.572;2023-02-01T09:58:35;2.90;;;2.20;;
67737;SDS011;54534;43.612;1.572;2023-02-01T10:01:05;4.53;;;2.20;;
67737;SDS011;54534;43.612;1.572;2023-02-01T10:03:45;2.27;;;2.07;;
67737;SDS011;54534;43.612;1.572;2023-02-01T10:20:28;6.57;;;2.20;;
67737;SDS011;54534;43.612;1.572;2023-02-01T10:25:54;3.50;;;2.03;;
67737;SDS011;54534;43.612;1.572;2023-02-01T10:28:24;4.87;;;1.87;;
67737;SDS011;54534;43.612;1.572;2023-02-01T10:30:51;2.10;;;1.80;;
67737;SDS011;54534;43.612;1.572;2023-02-01T10:33:26;1.90;;;1.63;;
67737;SDS011;54534;43.612;1.572;2023-02-01T10:36:00;2.27;;;1.50;;
67737;SDS011;54534;43.612;1.572;2023-02-01T10:38:36;2.50;;;1.97;;
67737;SDS011;54534;43.612;1.572;2023-02-01T10:41:03;2.93;;;1.63;;
67737;SDS011;54534;43.612;1.572;2023-02-01T10:43:36;3.57;;;1.70;;
67737;SDS011;54534;43.612;1.572;2023-02-01T10:46:03;2.07;;;1.80;;
67737;SDS011;54534;43.612;1.572;2023-02-01T10:48:29;1.80;;;1.57;;
67737;SDS011;54534;43.612;1.572;2023-02-01T10:50:59;5.23;;;2.00;;
67737;SDS011;54534;43.612;1.572;2023-02-01T10:53:29;2.03;;;1.50;;
67737;SDS011;54534;43.612;1.572;2023-02-01T10:56:05;3.47;;;1.93;;
67737;SDS011;54534;43.612;1.572;2023-02-01T10:58:32;2.17;;;1.50;;
67737;SDS011;54534;43.612;1.572;2023-02-01T11:05:59;2.40;;;1.63;;
67737;SDS011;54534;43.612;1.572;2023-02-01T11:08:25;4.60;;;1.90;;
67737;SDS011;54534;43.612;1.572;2023-02-01T11:11:03;2.03;;;1.70;;
67737;SDS011;54534;43.612;1.572;2023-02-01T11:16:00;2.33;;;1.65;;
67737;SDS011;54534;43.612;1.572;2023-02-01T11:18:28;3.67;;;1.70;;
67737;SDS011;54534;43.612;1.572;2023-02-01T11:20:55;1.93;;;1.50;;
67737;SDS011;54534;43.612;1.572;2023-02-01T11:23:22;2.27;;;1.30;;
67737;SDS011;54534;43.612;1.572;2023-02-01T11:25:53;2.80;;;1.70;;
67737;SDS011;54534;43.612;1.572;2023-02-01T11:28:20;3.30;;;1.33;;
67737;SDS011;54534;43.612;1.572;2023-02-01T11:30:49;4.13;;;1.83;;
67737;SDS011;54534;43.612;1.572;2023-02-01T11:33:19;3.13;;;1.40;;
67737;SDS011;54534;43.612;1.572;2023-02-01T11:35:50;5.27;;;1.63;;
67737;SDS011;54534;43.612;1.572;2023-02-01T11:38:22;2.80;;;2.00;;
67737;SDS011;54534;43.612;1.572;2023-02-01T11:40:50;3.00;;;1.70;;
67737;SDS011;54534;43.612;1.572;2023-02-01T11:43:18;3.97;;;1.57;;
67737;SDS011;54534;43.612;1.572;2023-02-01T11:45:53;5.80;;;1.47;;
67737;SDS011;54534;43.612;1.572;2023-02-01T11:48:24;4.10;;;1.70;;
67737;SDS011;54534;43.612;1.572;2023-02-01T11:51:08;3.67;;;1.70;;
67737;SDS011;54534;43.612;1.572;2023-02-01T12:12:51;6.13;;;2.10;;
67737;SDS011;54534;43.612;1.572;2023-02-01T12:26:44;4.97;;;1.77;;
67737;SDS011;54534;43.612;1.572;2023-02-01T12:39:40;7.20;;;1.87;;
67737;SDS011;54534;43.612;1.572;2023-02-01T12:42:20;7.20;;;2.17;;
67737;SDS011;54534;43.612;1.572;2023-02-01T12:50:56;3.53;;;1.43;;
67737;SDS011;54534;43.612;1.572;2023-02-01T12:56:17;6.53;;;1.50;;
67737;SDS011;54534;43.612;1.572;2023-02-01T12:58:51;3.80;;;1.30;;
67737;SDS011;54534;43.612;1.572;2023-02-01T13:01:31;6.07;;;1.67;;
67737;SDS011;54534;43.612;1.572;2023-02-01T13:04:03;2.83;;;1.40;;
67737;SDS011;54534;43.612;1.572;2023-02-01T13:07:06;5.67;;;1.30;;
67737;SDS011;54534;43.612;1.572;2023-02-01T13:09:38;7.37;;;1.60;;
67737;SDS011;54534;43.612;1.572;2023-02-01T13:12:12;7.63;;;1.60;;
67737;SDS011;54534;43.612;1.572;2023-02-01T13:14:46;7.17;;;1.70;;
67737;SDS011;54534;43.612;1.572;2023-02-01T13:17:27;2.63;;;1.20;;
67737;SDS011;54534;43.612;1.572;2023-02-01T13:22:32;3.87;;;1.23;;
67737;SDS011;54534;43.612;1.572;2023-02-01T13:25:04;7.07;;;1.50;;
67737;SDS011;54534;43.612;1.572;2023-02-01T13:27:38;2.77;;;1.53;;
67737;SDS011;54534;43.612;1.572;2023-02-01T13:43:37;2.07;;;1.20;;
67737;SDS011;54534;43.612;1.572;2023-02-01T13:46:07;1.40;;;1.27;;
67737;SDS011;54534;43.612;1.572;2023-02-01T13:51:06;1.63;;;1.10;;
67737;SDS011;54534;43.612;1.572;2023-02-01T13:53:34;4.57;;;1.30;;
67737;SDS011;54534;43.612;1.572;2023-02-01T13:56:20;3.60;;;1.23;;
67737;SDS011;54534;43.612;1.572;2023-02-01T13:58:49;3.07;;;1.47;;
67737;SDS011;54534;43.612;1.572;2023-02-01T14:11:36;3.07;;;1.10;;
67737;SDS011;54534;43.612;1.572;2023-02-01T14:16:40;5.10;;;1.43;;
67737;SDS011;54534;43.612;1.572;2023-02-01T14:19:18;2.40;;;1.43;;
67737;SDS011;54534;43.612;1.572;2023-02-01T14:21:49;3.17;;;1.17;;
67737;SDS011;54534;43.612;1.572;2023-02-01T14:27:00;3.53;;;1.50;;
67737;SDS011;54534;43.612;1.572;2023-02-01T14:29:43;2.57;;;1.20;;
67737;SDS011;54534;43.612;1.572;2023-02-01T14:32:20;4.17;;;1.20;;
67737;SDS011;54534;43.612;1.572;2023-02-01T14:42:25;4.27;;;1.30;;
67737;SDS011;54534;43.612;1.572;2023-02-01T14:47:50;3.20;;;1.20;;
67737;SDS011;54534;43.612;1.572;2023-02-01T14:55:29;1.80;;;1.40;;
67737;SDS011;54534;43.612;1.572;2023-02-01T14:58:05;2.40;;;1.57;;
67737;SDS011;54534;43.612;1.572;2023-02-01T15:00:41;4.07;;;1.33;;
67737;SDS011;54534;43.612;1.572;2023-02-01T15:03:25;2.57;;;1.10;;
67737;SDS011;54534;43.612;1.572;2023-02-01T15:08:47;1.60;;;1.23;;
67737;SDS011;54534;43.612;1.572;2023-02-01T15:11:15;1.73;;;1.40;;
67737;SDS011;54534;43.612;1.572;2023-02-01T15:13:47;2.93;;;1.50;;
67737;SDS011;54534;43.612;1.572;2023-02-01T15:16:15;4.20;;;1.73;;
67737;SDS011;54534;43.612;1.572;2023-02-01T15:18:41;1.97;;;1.50;;
67737;SDS011;54534;43.612;1.572;2023-02-01T15:21:15;3.33;;;1.40;;
67737;SDS011;54534;43.612;1.572;2023-02-01T15:23:43;2.30;;;1.40;;
67737;SDS011;54534;43.612;1.572;2023-02-01T15:26:10;1.87;;;1.17;;
67737;SDS011;54534;43.612;1.572;2023-02-01T15:28:36;1.37;;;1.27;;
67737;SDS011;54534;43.612;1.572;2023-02-01T15:31:03;2.03;;;1.40;;
67737;SDS011;54534;43.612;1.572;2023-02-01T15:33:30;3.97;;;1.60;;
67737;SDS011;54534;43.612;1.572;2023-02-01T15:38:32;1.77;;;1.10;;
67737;SDS011;54534;43.612;1.572;2023-02-01T15:41:09;2.03;;;1.30;;
67737;SDS011;54534;43.612;1.572;2023-02-01T15:46:08;1.60;;;1.50;;
67737;SDS011;54534;43.612;1.572;2023-02-01T15:51:19;1.73;;;1.37;;
67737;SDS011;54534;43.612;1.572;2023-02-01T15:53:51;3.10;;;1.40;;
67737;SDS011;54534;43.612;1.572;2023-02-01T15:56:21;1.83;;;1.40;;
67737;SDS011;54534;43.612;1.572;2023-02-01T15:58:50;3.87;;;1.50;;
67737;SDS011;54534;43.612;1.572;2023-02-01T16:01:19;2.73;;;1.53;;
67737;SDS011;54534;43.612;1.572;2023-02-01T16:03:45;1.80;;;1.30;;
67737;SDS011;54534;43.612;1.572;2023-02-01T16:08:51;4.00;;;1.30;;
67737;SDS011;54534;43.612;1.572;2023-02-01T16:11:30;4.53;;;1.20;;
67737;SDS011;54534;43.612;1.572;2023-02-01T16:14:00;1.83;;;1.40;;
67737;SDS011;54534;43.612;1.572;2023-02-01T16:16:26;4.13;;;1.70;;
67737;SDS011;54534;43.612;1.572;2023-02-01T16:18:53;1.40;;;1.30;;
67737;SDS011;54534;43.612;1.572;2023-02-01T16:21:19;1.57;;;1.20;;
67737;SDS011;54534;43.612;1.572;2023-02-01T16:23:47;1.60;;;1.30;;
67737;SDS011;54534;43.612;1.572;2023-02-01T16:26:16;6.80;;;1.33;;
67737;SDS011;54534;43.612;1.572;2023-02-01T16:28:42;3.13;;;1.23;;
67737;SDS011;54534;43.612;1.572;2023-02-01T16:31:10;2.70;;;1.80;;
67737;SDS011;54534;43.612;1.572;2023-02-01T16:33:44;5.03;;;1.47;;
67737;SDS011;54534;43.612;1.572;2023-02-01T16:36:16;1.63;;;1.40;;
67737;SDS011;54534;43.612;1.572;2023-02-01T16:38:42;1.80;;;1.20;;
67737;SDS011;54534;43.612;1.572;2023-02-01T16:41:12;3.63;;;2.47;;
67737;SDS011;54534;43.612;1.572;2023-02-01T16:43:39;1.50;;;1.40;;
67737;SDS011;54534;43.612;1.572;2023-02-01T16:46:05;1.70;;;1.30;;
67737;SDS011;54534;43.612;1.572;2023-02-01T16:48:35;2.23;;;1.43;;
67737;SDS011;54534;43.612;1.572;2023-02-01T16:51:03;6.28;;;1.35;;
67737;SDS011;54534;43.612;1.572;2023-02-01T16:53:33;6.73;;;1.67;;
67737;SDS011;54534;43.612;1.572;2023-02-01T16:55:59;4.90;;;1.30;;
67737;SDS011;54534;43.612;1.572;2023-02-01T16:58:24;2.40;;;1.50;;
67737;SDS011;54534;43.612;1.572;2023-02-01T17:00:51;3.67;;;1.50;;
67737;SDS011;54534;43.612;1.572;2023-02-01T17:03:17;4.37;;;1.40;;
67737;SDS011;54534;43.612;1.572;2023-02-01T17:05:54;2.83;;;1.70;;
67737;SDS011;54534;43.612;1.572;2023-02-01T17:08:24;4.57;;;1.80;;
67737;SDS011;54534;43.612;1.572;2023-02-01T17:11:01;1.58;;;1.33;;
67737;SDS011;54534;43.612;1.572;2023-02-01T17:13:28;2.50;;;1.50;;
67737;SDS011;54534;43.612;1.572;2023-02-01T17:15:56;4.17;;;1.40;;
67737;SDS011;54534;43.612;1.572;2023-02-01T17:18:27;2.73;;;1.60;;
67737;SDS011;54534;43.612;1.572;2023-02-01T17:20:56;4.23;;;1.87;;
67737;SDS011;54534;43.612;1.572;2023-02-01T17:23:25;5.07;;;2.00;;
67737;SDS011;54534;43.612;1.572;2023-02-01T17:25:52;2.77;;;1.50;;
67737;SDS011;54534;43.612;1.572;2023-02-01T17:28:18;4.50;;;1.90;;
67737;SDS011;54534;43.612;1.572;2023-02-01T17:30:44;3.97;;;1.70;;
67737;SDS011;54534;43.612;1.572;2023-02-01T17:33:20;2.53;;;1.63;;
67737;SDS011;54534;43.612;1.572;2023-02-01T17:35:48;3.00;;;1.80;;
67737;SDS011;54534;43.612;1.572;2023-02-01T17:38:14;3.63;;;1.60;;
67737;SDS011;54534;43.612;1.572;2023-02-01T17:40:40;2.53;;;2.00;;
67737;SDS011;54534;43.612;1.572;2023-02-01T17:43:09;5.27;;;2.20;;
67737;SDS011;54534;43.612;1.572;2023-02-01T17:45:37;3.60;;;2.00;;
67737;SDS011;54534;43.612;1.572;2023-02-01T17:48:11;7.27;;;1.97;;
67737;SDS011;54534;43.612;1.572;2023-02-01T17:50:36;6.33;;;2.20;;
67737;SDS011;54534;43.612;1.572;2023-02-01T17:53:03;6.53;;;2.70;;
67737;SDS011;54534;43.612;1.572;2023-02-01T17:55:33;10.10;;;2.23;;
67737;SDS011;54534;43.612;1.572;2023-02-01T17:58:00;10.47;;;3.17;;
67737;SDS011;54534;43.612;1.572;2023-02-01T18:00:25;5.43;;;1.73;;
67737;SDS011;54534;43.612;1.572;2023-02-01T18:02:51;6.10;;;2.20;;
67737;SDS011;54534;43.612;1.572;2023-02-01T18:05:18;4.47;;;2.30;;